Ladysmith, Canada
Current Conditions -  °F | °C
As of 9:36 AM on Thursday 23 Oct 2014 (Local Time) from CYCD Reporting Station
Light Fog Light Fog  
Wind Chill: 46°   Ceiling: 4500
Heat Index: 48°   Visibility: 6mi
Dew Point: 46°   Wind: 5mph
Humidity: 93%   Direction: 250°WSW
Pressure: 29.68"   Gusts: NA
Location:  48.98°N, 123.82°W
Report Text: CYCD 231636Z 25004KT 210V010 6SM BCFG FEW005 SCT020 BKN045 OVC070 09/08 A2968 RMK SF2SC2SC2AC2 SLP050
Loading
Personal Weather Stations






























Interactive Weather Map
Tropical Storm Tracking
New forecast layout! Learn more

10-Day Weather Forecast

Advertisements
Track Severe Weather on mobile